createdAt,value
2023-05-13T00:00:03.918Z,12.80
2023-05-13T00:02:31.761Z,13.40
2023-05-13T00:04:59.629Z,13.30
2023-05-13T00:07:28.679Z,13.20
2023-05-13T00:09:56.444Z,12.80
2023-05-13T00:12:24.275Z,13.20
2023-05-13T00:14:52.050Z,13.10
2023-05-13T00:17:19.770Z,12.90
2023-05-13T00:19:47.516Z,12.90
2023-05-13T00:22:15.295Z,12.90
2023-05-13T00:24:44.710Z,13.10
2023-05-13T00:27:12.818Z,13.10
2023-05-13T00:29:40.580Z,13.00
2023-05-13T00:32:08.671Z,13.20
2023-05-13T00:34:36.425Z,13.10
2023-05-13T00:37:04.869Z,12.90
2023-05-13T00:39:32.698Z,13.00
2023-05-13T00:42:04.311Z,12.60
2023-05-13T00:44:32.067Z,12.90
2023-05-13T00:47:00.277Z,12.90
2023-05-13T00:49:28.257Z,12.40
2023-05-13T00:51:56.149Z,12.50
2023-05-13T00:54:23.961Z,12.60
2023-05-13T00:56:54.363Z,12.80
2023-05-13T00:59:24.833Z,12.80
2023-05-13T01:02:02.865Z,12.40
2023-05-13T01:04:38.658Z,12.50
2023-05-13T01:07:13.250Z,12.80
2023-05-13T01:09:53.260Z,12.50
2023-05-13T01:12:27.492Z,12.70
2023-05-13T01:15:02.579Z,12.50
2023-05-13T01:17:36.741Z,12.60
2023-05-13T01:20:06.046Z,12.40
2023-05-13T01:22:35.202Z,12.60
2023-05-13T01:25:02.961Z,12.40
2023-05-13T01:27:30.745Z,12.40
2023-05-13T01:29:58.849Z,12.50
2023-05-13T01:32:27.161Z,12.10
2023-05-13T01:34:56.646Z,12.60
2023-05-13T01:37:24.938Z,12.70
2023-05-13T01:39:54.183Z,12.50
2023-05-13T01:42:22.064Z,12.50
2023-05-13T01:44:49.868Z,12.70
2023-05-13T01:47:17.688Z,12.80
2023-05-13T01:49:45.400Z,12.30
2023-05-13T01:52:13.230Z,12.40
2023-05-13T01:54:40.929Z,12.30
2023-05-13T01:57:09.985Z,12.30
2023-05-13T01:59:37.710Z,12.30
2023-05-13T02:02:05.784Z,12.00
2023-05-13T02:04:33.512Z,12.30
2023-05-13T02:07:01.274Z,12.60
2023-05-13T02:09:29.061Z,12.40
2023-05-13T02:11:56.782Z,12.40
2023-05-13T02:14:26.024Z,12.30
2023-05-13T02:16:53.897Z,12.60
2023-05-13T02:19:23.793Z,12.00
2023-05-13T02:21:51.598Z,12.10
2023-05-13T02:24:19.360Z,12.40
2023-05-13T02:26:47.088Z,12.40
2023-05-13T02:29:15.098Z,12.30
2023-05-13T02:31:44.205Z,12.40
2023-05-13T02:34:12.029Z,12.40
2023-05-13T02:36:39.771Z,12.50
2023-05-13T02:39:08.153Z,12.50
2023-05-13T02:41:36.403Z,12.60
2023-05-13T02:44:04.573Z,12.40
2023-05-13T02:46:32.455Z,12.50
2023-05-13T02:49:07.580Z,12.50
2023-05-13T02:51:35.336Z,12.30
2023-05-13T02:54:03.106Z,12.50
2023-05-13T02:56:30.854Z,12.30
2023-05-13T02:58:58.548Z,12.30
2023-05-13T03:01:27.029Z,12.40
2023-05-13T03:03:54.849Z,12.20
2023-05-13T03:06:23.955Z,12.00
2023-05-13T03:08:51.683Z,12.10
2023-05-13T03:11:19.420Z,12.10
2023-05-13T03:13:47.147Z,11.80
2023-05-13T03:16:15.110Z,11.80
2023-05-13T03:18:42.922Z,11.90
2023-05-13T03:21:11.116Z,11.80
2023-05-13T03:23:40.186Z,11.60
2023-05-13T03:26:07.979Z,12.00
2023-05-13T03:28:35.827Z,11.80
2023-05-13T03:31:03.614Z,12.00
2023-05-13T03:33:31.375Z,11.80
2023-05-13T03:35:59.193Z,11.70
2023-05-13T03:38:26.976Z,11.90
2023-05-13T03:40:56.083Z,11.40
2023-05-13T03:43:23.854Z,11.80
2023-05-13T03:45:52.010Z,11.70
2023-05-13T03:48:19.753Z,11.50
2023-05-13T03:50:47.632Z,11.90
2023-05-13T03:53:15.325Z,11.90
2023-05-13T03:55:43.353Z,12.00
2023-05-13T03:58:16.212Z,11.30
2023-05-13T04:00:46.393Z,11.80
2023-05-13T04:03:14.278Z,12.00
2023-05-13T04:05:42.071Z,11.90
2023-05-13T04:08:11.179Z,11.50
2023-05-13T04:10:39.037Z,11.90
2023-05-13T04:13:08.315Z,12.00
2023-05-13T04:15:37.542Z,11.80
2023-05-13T04:18:05.406Z,11.90
2023-05-13T04:20:33.143Z,11.80
2023-05-13T04:23:01.553Z,12.10
2023-05-13T04:25:29.308Z,12.00
2023-05-13T04:27:57.046Z,12.00
2023-05-13T04:30:24.825Z,12.00
2023-05-13T04:32:53.978Z,12.00
2023-05-13T04:35:21.947Z,11.90
2023-05-13T04:37:50.330Z,12.00
2023-05-13T04:40:18.410Z,12.00
2023-05-13T04:42:46.196Z,12.10
2023-05-13T04:45:13.986Z,12.10
2023-05-13T04:47:41.788Z,12.30
2023-05-13T04:50:11.823Z,12.30
2023-05-13T04:52:42.731Z,12.40
2023-05-13T04:55:10.951Z,12.40
2023-05-13T04:57:39.263Z,12.00
2023-05-13T05:00:09.540Z,12.60
2023-05-13T05:02:37.361Z,12.80
2023-05-13T05:05:05.381Z,12.70
2023-05-13T05:07:35.095Z,12.70
2023-05-13T05:10:02.974Z,13.10
2023-05-13T05:12:32.238Z,13.20
2023-05-13T05:15:00.176Z,13.20
2023-05-13T05:17:32.391Z,13.40
2023-05-13T05:20:00.212Z,13.30
2023-05-13T05:22:28.221Z,13.20
2023-05-13T05:24:57.277Z,13.20
2023-05-13T05:27:25.059Z,13.70
2023-05-13T05:29:52.758Z,13.40
2023-05-13T05:32:20.817Z,13.80
2023-05-13T05:34:48.648Z,13.80
2023-05-13T05:37:16.339Z,14.00
2023-05-13T05:39:44.072Z,13.90
2023-05-13T05:42:13.149Z,14.00
2023-05-13T05:44:40.857Z,14.00
2023-05-13T05:47:08.684Z,14.20
2023-05-13T05:49:36.393Z,14.40
2023-05-13T05:52:04.192Z,14.40
2023-05-13T05:54:32.019Z,14.60
2023-05-13T05:56:59.736Z,14.50
2023-05-13T05:59:28.828Z,15.20
2023-05-13T06:01:56.649Z,15.20
2023-05-13T06:04:24.704Z,15.30
2023-05-13T06:06:52.479Z,15.40
2023-05-13T06:09:20.344Z,15.60
2023-05-13T06:11:48.064Z,15.90
2023-05-13T06:14:16.104Z,16.10
2023-05-13T06:16:45.218Z,16.40
2023-05-13T06:19:13.723Z,16.60
2023-05-13T06:21:43.094Z,17.00
2023-05-13T06:24:11.035Z,17.20
2023-05-13T06:26:38.833Z,17.00
2023-05-13T06:29:06.650Z,17.30
2023-05-13T06:31:34.460Z,17.40
2023-05-13T06:34:03.617Z,17.60
2023-05-13T06:36:31.804Z,17.60
2023-05-13T06:38:59.686Z,18.90
2023-05-13T06:41:27.616Z,21.30
2023-05-13T06:43:55.366Z,23.10
2023-05-13T06:46:23.143Z,24.10
2023-05-13T06:48:52.336Z,24.70
2023-05-13T06:51:21.682Z,25.00
2023-05-13T06:53:49.369Z,25.20
2023-05-13T06:56:17.038Z,25.90
2023-05-13T06:58:44.867Z,26.00
2023-05-13T07:01:12.618Z,25.60
2023-05-13T07:03:40.412Z,25.70
2023-05-13T07:06:09.268Z,26.30
2023-05-13T07:08:38.446Z,26.60
2023-05-13T07:11:06.252Z,27.20
2023-05-13T07:13:34.905Z,28.00
2023-05-13T07:16:03.133Z,27.90
2023-05-13T07:18:31.032Z,27.70
2023-05-13T07:20:58.806Z,27.20
2023-05-13T07:23:26.872Z,27.10
2023-05-13T07:25:56.405Z,27.30
2023-05-13T07:28:24.303Z,27.40
2023-05-13T07:30:53.333Z,27.60
2023-05-13T07:33:21.261Z,27.20
2023-05-13T07:35:49.092Z,27.20
2023-05-13T07:38:17.405Z,26.50
2023-05-13T07:40:45.103Z,26.00
2023-05-13T07:43:14.492Z,26.90
2023-05-13T07:45:42.430Z,27.30
2023-05-13T07:48:10.821Z,27.20
2023-05-13T07:50:39.138Z,26.60
2023-05-13T07:53:06.901Z,26.00
2023-05-13T07:55:34.741Z,25.80
2023-05-13T07:58:02.698Z,25.50
2023-05-13T08:00:31.744Z,25.50
2023-05-13T08:03:02.647Z,25.70
2023-05-13T08:05:32.173Z,25.50
2023-05-13T08:08:02.301Z,25.20
2023-05-13T08:10:31.981Z,25.10
2023-05-13T08:13:01.859Z,24.90
2023-05-13T08:15:32.818Z,25.00
2023-05-13T08:18:02.452Z,25.00
2023-05-13T08:20:33.094Z,24.90
2023-05-13T08:23:02.654Z,24.30
2023-05-13T08:25:32.183Z,23.90
2023-05-13T08:28:02.004Z,24.10
2023-05-13T08:30:33.145Z,25.30
2023-05-13T08:33:03.102Z,24.80
2023-05-13T08:35:33.095Z,24.40
2023-05-13T08:38:04.151Z,24.10
2023-05-13T08:40:34.271Z,24.20
2023-05-13T08:43:04.643Z,24.30
2023-05-13T08:45:36.591Z,23.50
2023-05-13T08:48:07.886Z,22.90
2023-05-13T08:50:37.161Z,23.10
2023-05-13T08:53:05.846Z,23.40
2023-05-13T08:55:34.903Z,24.30
2023-05-13T08:58:04.907Z,25.20
2023-05-13T09:00:39.689Z,25.90
2023-05-13T09:03:08.862Z,26.80
2023-05-13T09:05:39.070Z,27.20
2023-05-13T09:08:10.922Z,28.00
2023-05-13T09:10:40.045Z,28.70
2023-05-13T09:13:09.385Z,27.90
2023-05-13T09:15:44.192Z,27.90
2023-05-13T09:18:16.495Z,28.50
2023-05-13T09:20:48.541Z,28.10
2023-05-13T09:23:22.097Z,27.60
2023-05-13T09:25:50.803Z,27.60
2023-05-13T09:28:23.777Z,27.00
2023-05-13T09:30:58.625Z,26.80
2023-05-13T09:33:31.818Z,25.90
2023-05-13T09:36:01.671Z,25.60
2023-05-13T09:38:32.785Z,25.30
2023-05-13T09:41:04.399Z,25.60
2023-05-13T09:43:34.505Z,25.90
2023-05-13T09:46:07.035Z,25.70
2023-05-13T09:48:38.266Z,25.40
2023-05-13T09:51:08.768Z,25.20
2023-05-13T09:53:38.584Z,25.40
2023-05-13T09:56:10.768Z,25.60
2023-05-13T09:58:38.643Z,25.50
2023-05-13T10:01:08.085Z,25.40
2023-05-13T10:03:36.060Z,25.70
2023-05-13T10:06:04.795Z,25.50
2023-05-13T10:08:32.977Z,25.50
2023-05-13T10:11:01.049Z,25.30
2023-05-13T10:13:30.648Z,25.20
2023-05-13T10:15:59.535Z,24.90
2023-05-13T10:18:29.439Z,25.00
2023-05-13T10:20:57.959Z,25.10
2023-05-13T10:23:25.828Z,24.80
2023-05-13T10:25:55.074Z,25.10
2023-05-13T10:28:23.183Z,24.60
2023-05-13T10:30:51.715Z,24.80
2023-05-13T10:33:19.853Z,24.70
2023-05-13T10:36:07.821Z,25.00
2023-05-13T10:38:48.834Z,24.40
2023-05-13T10:41:32.033Z,23.90
2023-05-13T10:44:00.163Z,23.80
2023-05-13T10:46:28.329Z,23.80
2023-05-13T10:48:59.133Z,24.00
2023-05-13T10:51:28.554Z,24.20
2023-05-13T10:53:58.944Z,24.60
2023-05-13T10:56:28.854Z,24.70
2023-05-13T10:59:01.270Z,23.70
2023-05-13T11:01:30.376Z,23.30
2023-05-13T11:04:01.434Z,23.00
2023-05-13T11:06:35.404Z,23.10
2023-05-13T11:09:06.820Z,23.00
2023-05-13T11:11:35.840Z,23.00
2023-05-13T11:14:16.898Z,23.20
2023-05-13T11:16:49.341Z,23.50
2023-05-13T11:19:21.893Z,24.10
2023-05-13T11:21:53.494Z,24.70
2023-05-13T11:24:22.830Z,25.00
2023-05-13T11:26:52.638Z,25.20
2023-05-13T11:29:31.355Z,25.30
2023-05-13T11:32:01.000Z,25.00
2023-05-13T11:34:30.020Z,24.80
2023-05-13T11:37:08.588Z,24.60
2023-05-13T11:39:39.270Z,24.20
2023-05-13T11:42:09.178Z,24.30
2023-05-13T11:44:37.434Z,24.40
2023-05-13T11:47:07.949Z,25.20
2023-05-13T11:49:38.778Z,25.30
2023-05-13T11:52:10.145Z,24.70
2023-05-13T11:54:49.105Z,24.00
2023-05-13T11:57:23.017Z,23.60
2023-05-13T11:59:55.013Z,23.20
2023-05-13T12:02:24.473Z,22.70
2023-05-13T12:04:53.320Z,23.00
2023-05-13T12:07:23.652Z,22.80
2023-05-13T12:09:51.528Z,22.50
2023-05-13T12:12:20.534Z,22.50
2023-05-13T12:14:50.227Z,22.90
2023-05-13T12:17:18.876Z,23.00
2023-05-13T12:20:06.349Z,23.10
2023-05-13T12:22:36.333Z,22.80
2023-05-13T12:25:34.180Z,22.10
2023-05-13T12:28:08.052Z,21.90
2023-05-13T12:30:36.346Z,21.50
2023-05-13T12:33:05.474Z,21.20
2023-05-13T12:35:33.750Z,20.80
2023-05-13T12:38:05.496Z,20.80
2023-05-13T12:40:33.511Z,20.50
2023-05-13T12:43:03.073Z,20.40
2023-05-13T12:45:31.629Z,20.20
2023-05-13T12:48:00.596Z,20.40
2023-05-13T12:50:28.684Z,20.70
2023-05-13T12:52:57.627Z,20.90
2023-05-13T12:55:27.891Z,21.00
2023-05-13T12:57:57.209Z,20.90
2023-05-13T13:00:25.343Z,20.90
2023-05-13T13:02:53.876Z,21.00
2023-05-13T13:05:22.095Z,20.70
2023-05-13T13:07:50.553Z,21.30
2023-05-13T13:10:18.490Z,21.50
2023-05-13T13:12:47.925Z,21.80
2023-05-13T13:15:15.868Z,22.00
2023-05-13T13:17:43.675Z,22.20
2023-05-13T13:20:12.394Z,22.50
2023-05-13T13:22:40.144Z,23.00
2023-05-13T13:25:08.487Z,23.40
2023-05-13T13:27:36.282Z,23.20
2023-05-13T13:30:07.823Z,23.20
2023-05-13T13:32:35.976Z,22.80
2023-05-13T13:35:05.653Z,22.30
2023-05-13T13:37:34.294Z,22.00
2023-05-13T13:40:03.487Z,21.80
2023-05-13T13:42:43.471Z,21.90
2023-05-13T13:45:14.569Z,22.10
2023-05-13T13:47:42.716Z,22.10
2023-05-13T13:50:11.609Z,22.00
2023-05-13T13:52:39.421Z,21.90
2023-05-13T13:55:08.294Z,22.00
2023-05-13T13:57:36.065Z,22.00
2023-05-13T14:00:03.865Z,21.90
2023-05-13T14:02:33.115Z,21.90
2023-05-13T14:05:00.980Z,22.10
2023-05-13T14:07:29.156Z,22.40
2023-05-13T14:09:58.007Z,22.30
2023-05-13T14:12:27.315Z,21.40
2023-05-13T14:14:55.081Z,21.80
2023-05-13T14:17:22.979Z,21.90
2023-05-13T14:19:55.033Z,21.50
2023-05-13T14:22:23.459Z,21.90
2023-05-13T14:24:52.021Z,22.40
2023-05-13T14:27:20.031Z,22.50
2023-05-13T14:29:48.482Z,22.30
2023-05-13T14:32:16.282Z,22.40
2023-05-13T14:34:44.091Z,22.20
2023-05-13T14:37:13.225Z,22.20
2023-05-13T14:39:40.982Z,22.00
2023-05-13T14:42:08.853Z,22.00
2023-05-13T14:44:36.569Z,21.90
2023-05-13T14:47:04.569Z,21.50
2023-05-13T14:49:32.383Z,21.40
2023-05-13T14:52:00.108Z,21.30
2023-05-13T14:54:35.261Z,21.40
2023-05-13T14:57:03.575Z,21.40
2023-05-13T14:59:31.733Z,21.30
2023-05-13T15:01:59.497Z,21.40
2023-05-13T15:04:27.828Z,21.40
2023-05-13T15:06:56.529Z,21.80
2023-05-13T15:09:24.306Z,21.30
2023-05-13T15:11:53.464Z,21.90
2023-05-13T15:14:25.689Z,21.90
2023-05-13T15:16:53.763Z,21.80
2023-05-13T15:19:21.669Z,21.80
2023-05-13T15:21:49.531Z,22.00
2023-05-13T15:24:17.282Z,22.10
2023-05-13T15:26:45.032Z,22.40
2023-05-13T15:29:14.089Z,22.60
2023-05-13T15:31:41.866Z,22.70
2023-05-13T15:34:09.607Z,22.80
2023-05-13T15:36:37.314Z,22.70
2023-05-13T15:39:05.068Z,22.80
2023-05-13T15:41:32.831Z,23.00
2023-05-13T15:44:00.605Z,22.90
2023-05-13T15:46:29.870Z,22.50
2023-05-13T15:48:57.634Z,22.50
2023-05-13T15:51:25.439Z,22.10
2023-05-13T15:53:53.416Z,21.80
2023-05-13T15:56:21.849Z,21.70
2023-05-13T15:58:51.467Z,21.70
2023-05-13T16:01:19.510Z,21.80
2023-05-13T16:03:48.698Z,21.90
2023-05-13T16:06:16.577Z,21.90
2023-05-13T16:08:44.362Z,21.70
2023-05-13T16:11:13.145Z,21.30
2023-05-13T16:13:40.920Z,20.90
2023-05-13T16:16:08.721Z,20.40
2023-05-13T16:18:36.537Z,20.30
2023-05-13T16:21:06.299Z,20.20
2023-05-13T16:23:34.022Z,20.00
2023-05-13T16:26:01.800Z,19.90
2023-05-13T16:28:29.541Z,19.30
2023-05-13T16:30:58.641Z,19.30
2023-05-13T16:33:26.793Z,19.10
2023-05-13T16:35:54.638Z,19.10
2023-05-13T16:38:25.485Z,19.20
2023-05-13T16:40:53.365Z,19.00
2023-05-13T16:43:21.147Z,19.00
2023-05-13T16:45:48.951Z,19.10
2023-05-13T16:48:17.086Z,19.20
2023-05-13T16:50:44.892Z,18.80
2023-05-13T16:53:13.371Z,19.10
2023-05-13T16:55:42.438Z,19.00
2023-05-13T16:58:10.234Z,19.00
2023-05-13T17:00:37.970Z,19.00
2023-05-13T17:03:05.744Z,18.70
2023-05-13T17:05:33.646Z,18.70
2023-05-13T17:08:01.346Z,18.60
2023-05-13T17:10:29.140Z,18.70
2023-05-13T17:12:58.484Z,18.50
2023-05-13T17:15:26.453Z,18.30
2023-05-13T17:17:54.281Z,18.30
2023-05-13T17:20:22.468Z,18.20
2023-05-13T17:22:50.432Z,18.40
2023-05-13T17:25:18.220Z,18.30
2023-05-13T17:27:45.924Z,18.10
2023-05-13T17:30:16.311Z,18.20
2023-05-13T17:32:44.050Z,18.30
2023-05-13T17:35:11.864Z,18.10
2023-05-13T17:37:39.626Z,18.10
2023-05-13T17:40:09.052Z,18.40
2023-05-13T17:42:36.847Z,18.60
2023-05-13T17:45:05.246Z,18.20
2023-05-13T17:47:34.802Z,18.30
2023-05-13T17:50:02.595Z,18.30
2023-05-13T17:52:30.322Z,18.40
2023-05-13T17:54:58.117Z,18.00
2023-05-13T17:57:25.895Z,18.00
2023-05-13T17:59:53.789Z,18.20
2023-05-13T18:02:21.566Z,17.70
2023-05-13T18:04:52.040Z,18.30
2023-05-13T18:07:20.458Z,18.00
2023-05-13T18:09:49.924Z,18.30
2023-05-13T18:12:18.025Z,18.40
2023-05-13T18:14:45.822Z,18.20
2023-05-13T18:17:13.690Z,18.10
2023-05-13T18:19:41.473Z,18.30
2023-05-13T18:22:10.771Z,17.80
2023-05-13T18:24:39.199Z,18.30
2023-05-13T18:27:08.076Z,18.10
2023-05-13T18:29:36.224Z,18.20
2023-05-13T18:32:04.829Z,18.00
2023-05-13T18:34:33.607Z,18.00
2023-05-13T18:37:01.543Z,17.90
2023-05-13T18:39:31.271Z,18.00
2023-05-13T18:41:58.969Z,17.30
2023-05-13T18:44:26.715Z,17.30
2023-05-13T18:46:54.557Z,17.80
2023-05-13T18:49:22.905Z,17.80
2023-05-13T18:51:50.888Z,17.50
2023-05-13T18:54:18.590Z,17.60
2023-05-13T18:56:47.680Z,17.10
2023-05-13T18:59:15.441Z,17.30
2023-05-13T19:01:43.395Z,17.10
2023-05-13T19:04:12.153Z,17.30
2023-05-13T19:06:40.169Z,17.30
2023-05-13T19:09:07.942Z,17.10
2023-05-13T19:11:35.747Z,17.20
2023-05-13T19:14:04.859Z,16.80
2023-05-13T19:16:32.704Z,16.80
2023-05-13T19:19:00.598Z,16.80
2023-05-13T19:21:28.448Z,16.90
2023-05-13T19:23:56.250Z,16.50
2023-05-13T19:26:24.068Z,16.70
2023-05-13T19:28:52.191Z,17.00
2023-05-13T19:31:21.959Z,16.80
2023-05-13T19:33:49.818Z,16.80
2023-05-13T19:36:17.538Z,16.30
2023-05-13T19:38:45.338Z,16.50
2023-05-13T19:41:13.155Z,16.70
2023-05-13T19:43:40.863Z,16.50
2023-05-13T19:46:08.716Z,16.40
2023-05-13T19:48:37.890Z,16.80
2023-05-13T19:51:05.690Z,16.50
2023-05-13T19:53:33.403Z,16.70
2023-05-13T19:56:01.422Z,16.90
2023-05-13T19:58:29.273Z,16.60
2023-05-13T20:00:56.994Z,16.60
2023-05-13T20:03:24.947Z,16.80
2023-05-13T20:05:54.188Z,17.00
2023-05-13T20:08:22.319Z,16.70
2023-05-13T20:10:50.022Z,16.70
2023-05-13T20:13:17.787Z,16.60
2023-05-13T20:15:45.504Z,16.70
2023-05-13T20:18:13.501Z,16.60
2023-05-13T20:20:41.520Z,16.80
2023-05-13T20:23:11.998Z,16.80
2023-05-13T20:25:40.926Z,16.60
2023-05-13T20:28:08.762Z,16.80
2023-05-13T20:30:36.674Z,16.40
2023-05-13T20:33:04.621Z,16.50
2023-05-13T20:35:32.832Z,16.60
2023-05-13T20:38:01.089Z,16.50
2023-05-13T20:40:30.346Z,16.60
2023-05-13T20:43:01.077Z,16.40
2023-05-13T20:45:29.066Z,16.40
2023-05-13T20:47:59.182Z,16.50
2023-05-13T20:50:28.269Z,16.60
2023-05-13T20:52:56.205Z,16.30
2023-05-13T20:55:24.144Z,16.30
2023-05-13T20:57:53.423Z,16.40
2023-05-13T21:00:22.045Z,16.20
2023-05-13T21:02:51.634Z,16.10
2023-05-13T21:05:19.630Z,16.00
2023-05-13T21:07:47.427Z,16.00
2023-05-13T21:10:15.992Z,15.60
2023-05-13T21:12:47.428Z,15.30
2023-05-13T21:15:16.633Z,15.60
2023-05-13T21:17:44.446Z,15.80
2023-05-13T21:20:13.333Z,15.80
2023-05-13T21:22:41.153Z,16.00
2023-05-13T21:25:09.734Z,15.90
2023-05-13T21:27:37.602Z,15.60
2023-05-13T21:30:06.133Z,15.80
2023-05-13T21:32:35.232Z,15.50
2023-05-13T21:35:03.194Z,15.40
2023-05-13T21:37:30.987Z,15.70
2023-05-13T21:39:58.897Z,15.80
2023-05-13T21:42:27.056Z,15.00
2023-05-13T21:44:55.057Z,15.20
2023-05-13T21:47:23.240Z,15.30
2023-05-13T21:49:52.421Z,15.50
2023-05-13T21:52:20.206Z,15.60
2023-05-13T21:54:47.956Z,15.30
2023-05-13T21:57:15.692Z,15.90
2023-05-13T21:59:43.516Z,15.70
2023-05-13T22:02:11.309Z,15.20
2023-05-13T22:04:39.088Z,15.50
2023-05-13T22:07:08.511Z,15.50
2023-05-13T22:09:36.590Z,15.40
2023-05-13T22:12:04.763Z,15.60
2023-05-13T22:14:32.474Z,15.50
2023-05-13T22:17:08.966Z,15.20
2023-05-13T22:19:37.854Z,15.50
2023-05-13T22:22:06.103Z,15.30
2023-05-13T22:24:35.273Z,14.90
2023-05-13T22:27:03.185Z,15.30
2023-05-13T22:29:31.208Z,15.20
2023-05-13T22:31:59.162Z,15.10
2023-05-13T22:34:27.652Z,15.30
2023-05-13T22:36:55.704Z,15.60
2023-05-13T22:39:23.538Z,15.70
2023-05-13T22:41:54.569Z,15.60
2023-05-13T22:44:23.838Z,15.10
2023-05-13T22:46:52.540Z,15.50
2023-05-13T22:49:20.441Z,15.50
2023-05-13T22:51:48.718Z,15.20
2023-05-13T22:54:16.605Z,15.40
2023-05-13T22:56:44.375Z,15.40
2023-05-13T22:59:13.521Z,15.10
2023-05-13T23:01:41.726Z,15.60
2023-05-13T23:04:09.920Z,15.40
2023-05-13T23:06:37.667Z,15.30
2023-05-13T23:09:05.639Z,15.70
2023-05-13T23:11:33.442Z,15.50
2023-05-13T23:14:01.204Z,15.30
2023-05-13T23:16:30.286Z,15.50
2023-05-13T23:18:58.153Z,15.50
2023-05-13T23:21:25.958Z,15.50
2023-05-13T23:23:53.682Z,15.40
2023-05-13T23:26:21.926Z,15.60
2023-05-13T23:28:49.629Z,15.60
2023-05-13T23:31:17.364Z,15.70
2023-05-13T23:33:46.449Z,15.50
2023-05-13T23:36:15.685Z,15.80
2023-05-13T23:38:43.419Z,15.50
2023-05-13T23:41:11.165Z,15.60
2023-05-13T23:43:38.866Z,15.50
2023-05-13T23:46:06.743Z,15.50
2023-05-13T23:48:34.496Z,15.80
2023-05-13T23:51:03.647Z,15.90
2023-05-13T23:53:31.378Z,15.60
2023-05-13T23:55:59.082Z,15.60
2023-05-13T23:58:26.964Z,15.60
